sensor_id;sensor_type;location;lat;lon;timestamp;P1;durP1;ratioP1;P2;durP2;ratioP2
68225;SDS011;55045;49.410;11.030;2023-05-20T00:01:42;6.88;;;3.90;;
68225;SDS011;55045;49.410;11.030;2023-05-20T00:04:45;5.97;;;3.63;;
68225;SDS011;55045;49.410;11.030;2023-05-20T00:07:50;5.65;;;3.90;;
68225;SDS011;55045;49.410;11.030;2023-05-20T00:10:53;5.78;;;3.80;;
68225;SDS011;55045;49.410;11.030;2023-05-20T00:13:56;6.78;;;3.88;;
68225;SDS011;55045;49.410;11.030;2023-05-20T00:16:59;5.35;;;3.83;;
68225;SDS011;55045;49.410;11.030;2023-05-20T00:20:03;4.85;;;3.85;;
68225;SDS011;55045;49.410;11.030;2023-05-20T00:23:08;7.35;;;3.47;;
68225;SDS011;55045;49.410;11.030;2023-05-20T00:26:12;3.63;;;3.33;;
68225;SDS011;55045;49.410;11.030;2023-05-20T00:29:15;5.65;;;4.10;;
68225;SDS011;55045;49.410;11.030;2023-05-20T00:32:18;5.25;;;3.83;;
68225;SDS011;55045;49.410;11.030;2023-05-20T00:35:22;5.45;;;3.92;;
68225;SDS011;55045;49.410;11.030;2023-05-20T00:38:26;5.03;;;3.70;;
68225;SDS011;55045;49.410;11.030;2023-05-20T00:41:31;4.32;;;3.30;;
68225;SDS011;55045;49.410;11.030;2023-05-20T00:44:34;5.45;;;4.40;;
68225;SDS011;55045;49.410;11.030;2023-05-20T00:47:37;4.60;;;4.00;;
68225;SDS011;55045;49.410;11.030;2023-05-20T00:50:41;6.45;;;3.97;;
68225;SDS011;55045;49.410;11.030;2023-05-20T00:53:46;5.55;;;4.20;;
68225;SDS011;55045;49.410;11.030;2023-05-20T00:56:49;3.97;;;3.15;;
68225;SDS011;55045;49.410;11.030;2023-05-20T00:59:53;7.57;;;3.90;;
68225;SDS011;55045;49.410;11.030;2023-05-20T01:02:56;5.30;;;4.60;;
68225;SDS011;55045;49.410;11.030;2023-05-20T01:06:00;5.18;;;4.15;;
68225;SDS011;55045;49.410;11.030;2023-05-20T01:09:05;6.40;;;4.43;;
68225;SDS011;55045;49.410;11.030;2023-05-20T01:12:11;6.15;;;4.30;;
68225;SDS011;55045;49.410;11.030;2023-05-20T01:15:18;6.50;;;4.15;;
68225;SDS011;55045;49.410;11.030;2023-05-20T01:18:24;6.13;;;4.20;;
68225;SDS011;55045;49.410;11.030;2023-05-20T01:21:31;5.32;;;3.92;;
68225;SDS011;55045;49.410;11.030;2023-05-20T01:24:40;5.75;;;4.10;;
68225;SDS011;55045;49.410;11.030;2023-05-20T01:27:44;6.70;;;3.88;;
68225;SDS011;55045;49.410;11.030;2023-05-20T01:30:50;4.85;;;3.90;;
68225;SDS011;55045;49.410;11.030;2023-05-20T01:33:58;5.38;;;4.35;;
68225;SDS011;55045;49.410;11.030;2023-05-20T01:37:03;4.95;;;4.03;;
68225;SDS011;55045;49.410;11.030;2023-05-20T01:40:09;7.78;;;4.47;;
68225;SDS011;55045;49.410;11.030;2023-05-20T01:43:15;4.93;;;4.28;;
68225;SDS011;55045;49.410;11.030;2023-05-20T01:46:19;5.68;;;4.55;;
68225;SDS011;55045;49.410;11.030;2023-05-20T01:49:23;7.28;;;4.30;;
68225;SDS011;55045;49.410;11.030;2023-05-20T01:52:26;6.45;;;4.40;;
68225;SDS011;55045;49.410;11.030;2023-05-20T01:55:32;8.13;;;5.05;;
68225;SDS011;55045;49.410;11.030;2023-05-20T01:58:36;7.15;;;4.15;;
68225;SDS011;55045;49.410;11.030;2023-05-20T02:01:39;6.65;;;4.68;;
68225;SDS011;55045;49.410;11.030;2023-05-20T02:04:44;6.47;;;4.80;;
68225;SDS011;55045;49.410;11.030;2023-05-20T02:07:48;7.28;;;4.50;;
68225;SDS011;55045;49.410;11.030;2023-05-20T02:10:56;7.20;;;4.35;;
68225;SDS011;55045;49.410;11.030;2023-05-20T02:13:59;5.10;;;4.57;;
68225;SDS011;55045;49.410;11.030;2023-05-20T02:17:03;7.72;;;5.00;;
68225;SDS011;55045;49.410;11.030;2023-05-20T02:20:06;6.07;;;4.80;;
68225;SDS011;55045;49.410;11.030;2023-05-20T02:23:11;6.13;;;5.00;;
68225;SDS011;55045;49.410;11.030;2023-05-20T02:26:15;7.25;;;5.13;;
68225;SDS011;55045;49.410;11.030;2023-05-20T02:29:18;8.93;;;5.18;;
68225;SDS011;55045;49.410;11.030;2023-05-20T02:32:23;7.10;;;4.82;;
68225;SDS011;55045;49.410;11.030;2023-05-20T02:35:30;6.43;;;5.20;;
68225;SDS011;55045;49.410;11.030;2023-05-20T02:38:34;6.90;;;5.43;;
68225;SDS011;55045;49.410;11.030;2023-05-20T02:41:38;6.15;;;4.75;;
68225;SDS011;55045;49.410;11.030;2023-05-20T02:44:43;6.50;;;4.97;;
68225;SDS011;55045;49.410;11.030;2023-05-20T02:47:47;6.57;;;5.28;;
68225;SDS011;55045;49.410;11.030;2023-05-20T02:50:50;8.63;;;5.55;;
68225;SDS011;55045;49.410;11.030;2023-05-20T02:53:53;7.65;;;5.43;;
68225;SDS011;55045;49.410;11.030;2023-05-20T02:56:58;8.52;;;5.35;;
68225;SDS011;55045;49.410;11.030;2023-05-20T03:00:01;8.15;;;5.05;;
68225;SDS011;55045;49.410;11.030;2023-05-20T03:03:05;7.50;;;5.22;;
68225;SDS011;55045;49.410;11.030;2023-05-20T03:06:09;7.80;;;5.10;;
68225;SDS011;55045;49.410;11.030;2023-05-20T03:09:12;7.95;;;5.93;;
68225;SDS011;55045;49.410;11.030;2023-05-20T03:12:17;8.70;;;6.30;;
68225;SDS011;55045;49.410;11.030;2023-05-20T03:15:21;9.40;;;5.43;;
68225;SDS011;55045;49.410;11.030;2023-05-20T03:18:24;10.02;;;6.10;;
68225;SDS011;55045;49.410;11.030;2023-05-20T03:21:27;8.05;;;6.05;;
68225;SDS011;55045;49.410;11.030;2023-05-20T03:24:31;7.65;;;5.38;;
68225;SDS011;55045;49.410;11.030;2023-05-20T03:27:36;8.23;;;5.80;;
68225;SDS011;55045;49.410;11.030;2023-05-20T03:34:33;7.45;;;5.97;;
68225;SDS011;55045;49.410;11.030;2023-05-20T03:37:36;7.28;;;5.47;;
68225;SDS011;55045;49.410;11.030;2023-05-20T03:40:40;8.02;;;6.30;;
68225;SDS011;55045;49.410;11.030;2023-05-20T03:43:44;7.82;;;5.15;;
68225;SDS011;55045;49.410;11.030;2023-05-20T03:46:47;9.75;;;6.68;;
68225;SDS011;55045;49.410;11.030;2023-05-20T03:49:52;7.93;;;5.60;;
68225;SDS011;55045;49.410;11.030;2023-05-20T03:52:55;7.50;;;6.47;;
68225;SDS011;55045;49.410;11.030;2023-05-20T03:55:59;8.93;;;5.88;;
68225;SDS011;55045;49.410;11.030;2023-05-20T03:59:10;9.20;;;6.57;;
68225;SDS011;55045;49.410;11.030;2023-05-20T04:02:13;9.68;;;7.40;;
68225;SDS011;55045;49.410;11.030;2023-05-20T04:05:19;8.68;;;6.30;;
68225;SDS011;55045;49.410;11.030;2023-05-20T04:08:22;8.45;;;6.53;;
68225;SDS011;55045;49.410;11.030;2023-05-20T04:11:26;9.38;;;6.25;;
68225;SDS011;55045;49.410;11.030;2023-05-20T04:14:29;7.40;;;5.50;;
68225;SDS011;55045;49.410;11.030;2023-05-20T04:17:36;8.25;;;6.38;;
68225;SDS011;55045;49.410;11.030;2023-05-20T04:20:42;11.18;;;6.60;;
68225;SDS011;55045;49.410;11.030;2023-05-20T04:23:49;9.52;;;6.50;;
68225;SDS011;55045;49.410;11.030;2023-05-20T04:26:52;9.63;;;7.30;;
68225;SDS011;55045;49.410;11.030;2023-05-20T04:29:56;9.93;;;7.15;;
68225;SDS011;55045;49.410;11.030;2023-05-20T04:33:00;8.73;;;6.18;;
68225;SDS011;55045;49.410;11.030;2023-05-20T04:36:08;9.70;;;7.43;;
68225;SDS011;55045;49.410;11.030;2023-05-20T04:39:14;10.70;;;7.22;;
68225;SDS011;55045;49.410;11.030;2023-05-20T04:42:19;10.35;;;7.57;;
68225;SDS011;55045;49.410;11.030;2023-05-20T04:45:24;8.57;;;6.47;;
68225;SDS011;55045;49.410;11.030;2023-05-20T04:48:27;8.95;;;7.35;;
68225;SDS011;55045;49.410;11.030;2023-05-20T04:51:32;10.30;;;7.28;;
68225;SDS011;55045;49.410;11.030;2023-05-20T04:54:36;11.25;;;7.55;;
68225;SDS011;55045;49.410;11.030;2023-05-20T04:57:41;9.18;;;7.18;;
68225;SDS011;55045;49.410;11.030;2023-05-20T05:00:44;9.00;;;6.50;;
68225;SDS011;55045;49.410;11.030;2023-05-20T05:03:48;10.10;;;7.10;;
68225;SDS011;55045;49.410;11.030;2023-05-20T05:06:53;10.13;;;7.20;;
68225;SDS011;55045;49.410;11.030;2023-05-20T05:09:56;11.77;;;7.28;;
68225;SDS011;55045;49.410;11.030;2023-05-20T05:13:01;11.18;;;6.82;;
68225;SDS011;55045;49.410;11.030;2023-05-20T05:16:06;10.80;;;8.10;;
68225;SDS011;55045;49.410;11.030;2023-05-20T05:19:09;9.07;;;6.53;;
68225;SDS011;55045;49.410;11.030;2023-05-20T05:22:16;9.75;;;7.30;;
68225;SDS011;55045;49.410;11.030;2023-05-20T05:25:19;12.40;;;6.97;;
68225;SDS011;55045;49.410;11.030;2023-05-20T05:28:23;10.80;;;7.45;;
68225;SDS011;55045;49.410;11.030;2023-05-20T05:31:26;10.68;;;7.50;;
68225;SDS011;55045;49.410;11.030;2023-05-20T05:34:30;11.25;;;7.35;;
68225;SDS011;55045;49.410;11.030;2023-05-20T05:37:35;10.38;;;7.32;;
68225;SDS011;55045;49.410;11.030;2023-05-20T05:40:39;8.45;;;6.88;;
68225;SDS011;55045;49.410;11.030;2023-05-20T05:43:43;11.57;;;8.50;;
68225;SDS011;55045;49.410;11.030;2023-05-20T05:46:47;10.35;;;7.65;;
68225;SDS011;55045;49.410;11.030;2023-05-20T05:49:51;10.35;;;7.70;;
68225;SDS011;55045;49.410;11.030;2023-05-20T05:52:55;9.30;;;6.90;;
68225;SDS011;55045;49.410;11.030;2023-05-20T05:55:59;10.73;;;7.88;;
68225;SDS011;55045;49.410;11.030;2023-05-20T05:59:10;9.38;;;6.57;;
68225;SDS011;55045;49.410;11.030;2023-05-20T06:02:14;10.80;;;6.97;;
68225;SDS011;55045;49.410;11.030;2023-05-20T06:05:17;9.48;;;7.22;;
68225;SDS011;55045;49.410;11.030;2023-05-20T06:08:22;11.00;;;7.20;;
68225;SDS011;55045;49.410;11.030;2023-05-20T06:11:26;11.23;;;7.95;;
68225;SDS011;55045;49.410;11.030;2023-05-20T06:14:29;11.63;;;8.40;;
68225;SDS011;55045;49.410;11.030;2023-05-20T06:17:33;10.15;;;8.57;;
68225;SDS011;55045;49.410;11.030;2023-05-20T06:20:36;11.00;;;8.43;;
68225;SDS011;55045;49.410;11.030;2023-05-20T06:23:41;12.00;;;8.60;;
68225;SDS011;55045;49.410;11.030;2023-05-20T06:26:45;12.25;;;9.25;;
68225;SDS011;55045;49.410;11.030;2023-05-20T06:29:50;9.35;;;7.28;;
68225;SDS011;55045;49.410;11.030;2023-05-20T06:33:07;10.77;;;7.82;;
68225;SDS011;55045;49.410;11.030;2023-05-20T06:36:10;11.30;;;8.30;;
68225;SDS011;55045;49.410;11.030;2023-05-20T06:39:16;9.73;;;7.80;;
68225;SDS011;55045;49.410;11.030;2023-05-20T06:42:20;10.88;;;7.45;;
68225;SDS011;55045;49.410;11.030;2023-05-20T06:45:36;11.00;;;7.75;;
68225;SDS011;55045;49.410;11.030;2023-05-20T06:48:57;8.68;;;7.13;;
68225;SDS011;55045;49.410;11.030;2023-05-20T06:52:00;7.78;;;6.88;;
68225;SDS011;55045;49.410;11.030;2023-05-20T06:55:06;9.90;;;7.35;;
68225;SDS011;55045;49.410;11.030;2023-05-20T06:58:09;9.60;;;7.88;;
68225;SDS011;55045;49.410;11.030;2023-05-20T07:01:13;10.07;;;7.40;;
68225;SDS011;55045;49.410;11.030;2023-05-20T07:04:20;14.65;;;9.73;;
68225;SDS011;55045;49.410;11.030;2023-05-20T07:07:23;13.73;;;7.80;;
68225;SDS011;55045;49.410;11.030;2023-05-20T07:10:28;18.42;;;7.70;;
68225;SDS011;55045;49.410;11.030;2023-05-20T07:13:31;10.38;;;7.10;;
68225;SDS011;55045;49.410;11.030;2023-05-20T07:16:35;9.40;;;6.40;;
68225;SDS011;55045;49.410;11.030;2023-05-20T07:19:38;8.70;;;7.20;;
68225;SDS011;55045;49.410;11.030;2023-05-20T07:22:41;9.13;;;7.45;;
68225;SDS011;55045;49.410;11.030;2023-05-20T07:25:51;8.00;;;6.82;;
68225;SDS011;55045;49.410;11.030;2023-05-20T07:28:54;13.88;;;7.00;;
68225;SDS011;55045;49.410;11.030;2023-05-20T07:31:58;10.70;;;7.65;;
68225;SDS011;55045;49.410;11.030;2023-05-20T07:35:02;11.13;;;7.30;;
68225;SDS011;55045;49.410;11.030;2023-05-20T07:38:05;34.30;;;9.85;;
68225;SDS011;55045;49.410;11.030;2023-05-20T07:41:10;8.02;;;6.40;;
68225;SDS011;55045;49.410;11.030;2023-05-20T07:44:13;9.05;;;6.95;;
68225;SDS011;55045;49.410;11.030;2023-05-20T07:47:22;7.93;;;6.68;;
68225;SDS011;55045;49.410;11.030;2023-05-20T07:50:26;11.02;;;6.82;;
68225;SDS011;55045;49.410;11.030;2023-05-20T07:53:30;8.93;;;6.82;;
68225;SDS011;55045;49.410;11.030;2023-05-20T07:56:36;32.15;;;9.85;;
68225;SDS011;55045;49.410;11.030;2023-05-20T07:59:40;10.52;;;7.50;;
68225;SDS011;55045;49.410;11.030;2023-05-20T08:02:43;15.82;;;6.82;;
68225;SDS011;55045;49.410;11.030;2023-05-20T08:05:52;8.38;;;6.35;;
68225;SDS011;55045;49.410;11.030;2023-05-20T08:08:56;13.80;;;6.72;;
68225;SDS011;55045;49.410;11.030;2023-05-20T08:12:06;27.20;;;8.25;;
68225;SDS011;55045;49.410;11.030;2023-05-20T08:15:09;10.93;;;6.60;;
68225;SDS011;55045;49.410;11.030;2023-05-20T08:18:14;8.60;;;6.45;;
68225;SDS011;55045;49.410;11.030;2023-05-20T08:21:19;12.98;;;6.82;;
68225;SDS011;55045;49.410;11.030;2023-05-20T08:24:23;23.83;;;6.97;;
68225;SDS011;55045;49.410;11.030;2023-05-20T08:27:28;8.35;;;6.32;;
68225;SDS011;55045;49.410;11.030;2023-05-20T08:30:32;31.73;;;9.30;;
68225;SDS011;55045;49.410;11.030;2023-05-20T08:33:35;10.73;;;7.13;;
68225;SDS011;55045;49.410;11.030;2023-05-20T08:36:39;10.05;;;7.78;;
68225;SDS011;55045;49.410;11.030;2023-05-20T08:39:43;9.23;;;6.45;;
68225;SDS011;55045;49.410;11.030;2023-05-20T08:42:50;9.43;;;6.10;;
68225;SDS011;55045;49.410;11.030;2023-05-20T08:45:54;8.13;;;5.70;;
68225;SDS011;55045;49.410;11.030;2023-05-20T08:49:01;10.80;;;6.97;;
68225;SDS011;55045;49.410;11.030;2023-05-20T08:52:04;8.20;;;5.60;;
68225;SDS011;55045;49.410;11.030;2023-05-20T08:55:13;7.97;;;5.93;;
68225;SDS011;55045;49.410;11.030;2023-05-20T09:01:24;9.55;;;5.90;;
68225;SDS011;55045;49.410;11.030;2023-05-20T09:04:27;10.25;;;6.32;;
68225;SDS011;55045;49.410;11.030;2023-05-20T09:07:31;8.05;;;5.32;;
68225;SDS011;55045;49.410;11.030;2023-05-20T09:10:34;10.38;;;6.70;;
68225;SDS011;55045;49.410;11.030;2023-05-20T09:13:39;9.02;;;5.70;;
68225;SDS011;55045;49.410;11.030;2023-05-20T09:16:43;9.38;;;6.20;;
68225;SDS011;55045;49.410;11.030;2023-05-20T09:19:46;8.90;;;6.75;;
68225;SDS011;55045;49.410;11.030;2023-05-20T09:22:50;9.02;;;6.30;;
68225;SDS011;55045;49.410;11.030;2023-05-20T09:25:54;12.45;;;6.93;;
68225;SDS011;55045;49.410;11.030;2023-05-20T09:28:59;8.80;;;5.85;;
68225;SDS011;55045;49.410;11.030;2023-05-20T09:34:33;7.72;;;6.60;;
68225;SDS011;55045;49.410;11.030;2023-05-20T09:37:37;9.85;;;6.10;;
68225;SDS011;55045;49.410;11.030;2023-05-20T09:40:44;8.23;;;6.22;;
68225;SDS011;55045;49.410;11.030;2023-05-20T09:43:49;8.70;;;6.20;;
68225;SDS011;55045;49.410;11.030;2023-05-20T09:46:55;12.50;;;8.35;;
68225;SDS011;55045;49.410;11.030;2023-05-20T09:50:01;12.55;;;6.55;;
68225;SDS011;55045;49.410;11.030;2023-05-20T09:53:05;8.32;;;5.90;;
68225;SDS011;55045;49.410;11.030;2023-05-20T09:56:10;10.95;;;6.15;;
68225;SDS011;55045;49.410;11.030;2023-05-20T09:59:14;12.73;;;5.93;;
68225;SDS011;55045;49.410;11.030;2023-05-20T10:02:21;10.10;;;6.57;;
68225;SDS011;55045;49.410;11.030;2023-05-20T10:05:26;8.60;;;6.28;;
68225;SDS011;55045;49.410;11.030;2023-05-20T10:08:36;6.72;;;6.03;;
68225;SDS011;55045;49.410;11.030;2023-05-20T10:11:55;8.45;;;5.72;;
68225;SDS011;55045;49.410;11.030;2023-05-20T10:15:09;6.85;;;5.47;;
68225;SDS011;55045;49.410;11.030;2023-05-20T10:18:23;7.55;;;6.10;;
68225;SDS011;55045;49.410;11.030;2023-05-20T10:21:39;9.25;;;5.97;;
68225;SDS011;55045;49.410;11.030;2023-05-20T10:24:42;8.18;;;6.00;;
68225;SDS011;55045;49.410;11.030;2023-05-20T10:27:46;12.38;;;5.82;;
68225;SDS011;55045;49.410;11.030;2023-05-20T10:30:50;9.43;;;5.63;;
68225;SDS011;55045;49.410;11.030;2023-05-20T10:33:53;6.32;;;5.40;;
68225;SDS011;55045;49.410;11.030;2023-05-20T10:37:01;7.68;;;5.15;;
68225;SDS011;55045;49.410;11.030;2023-05-20T10:40:05;7.82;;;5.10;;
68225;SDS011;55045;49.410;11.030;2023-05-20T10:43:12;9.05;;;6.82;;
68225;SDS011;55045;49.410;11.030;2023-05-20T10:46:16;9.45;;;6.60;;
68225;SDS011;55045;49.410;11.030;2023-05-20T10:49:40;9.98;;;7.57;;
68225;SDS011;55045;49.410;11.030;2023-05-20T10:52:47;9.03;;;6.93;;
68225;SDS011;55045;49.410;11.030;2023-05-20T10:55:51;7.45;;;5.90;;
68225;SDS011;55045;49.410;11.030;2023-05-20T10:58:55;7.80;;;6.75;;
68225;SDS011;55045;49.410;11.030;2023-05-20T11:01:59;11.07;;;6.50;;
68225;SDS011;55045;49.410;11.030;2023-05-20T11:05:03;14.77;;;11.55;;
68225;SDS011;55045;49.410;11.030;2023-05-20T11:08:10;15.90;;;11.73;;
68225;SDS011;55045;49.410;11.030;2023-05-20T11:11:28;10.30;;;6.70;;
68225;SDS011;55045;49.410;11.030;2023-05-20T11:14:33;16.33;;;7.03;;
68225;SDS011;55045;49.410;11.030;2023-05-20T11:17:37;9.52;;;6.40;;
68225;SDS011;55045;49.410;11.030;2023-05-20T11:20:40;16.05;;;6.63;;
68225;SDS011;55045;49.410;11.030;2023-05-20T11:23:46;10.63;;;6.40;;
68225;SDS011;55045;49.410;11.030;2023-05-20T11:26:49;8.80;;;5.78;;
68225;SDS011;55045;49.410;11.030;2023-05-20T11:29:53;9.90;;;5.72;;
68225;SDS011;55045;49.410;11.030;2023-05-20T11:32:57;7.80;;;6.00;;
68225;SDS011;55045;49.410;11.030;2023-05-20T11:36:01;6.15;;;5.25;;
68225;SDS011;55045;49.410;11.030;2023-05-20T11:39:15;9.05;;;6.82;;
68225;SDS011;55045;49.410;11.030;2023-05-20T11:42:18;9.02;;;7.18;;
68225;SDS011;55045;49.410;11.030;2023-05-20T11:45:23;11.50;;;6.97;;
68225;SDS011;55045;49.410;11.030;2023-05-20T11:48:28;9.18;;;6.28;;
68225;SDS011;55045;49.410;11.030;2023-05-20T11:51:31;12.90;;;7.20;;
68225;SDS011;55045;49.410;11.030;2023-05-20T11:54:36;13.07;;;7.38;;
68225;SDS011;55045;49.410;11.030;2023-05-20T11:57:39;9.02;;;6.20;;
68225;SDS011;55045;49.410;11.030;2023-05-20T12:00:43;10.20;;;6.00;;
68225;SDS011;55045;49.410;11.030;2023-05-20T12:03:57;11.73;;;6.78;;
68225;SDS011;55045;49.410;11.030;2023-05-20T12:07:01;12.48;;;6.50;;
68225;SDS011;55045;49.410;11.030;2023-05-20T12:10:09;8.32;;;6.35;;
68225;SDS011;55045;49.410;11.030;2023-05-20T12:13:14;19.92;;;7.03;;
68225;SDS011;55045;49.410;11.030;2023-05-20T12:16:17;8.77;;;6.88;;
68225;SDS011;55045;49.410;11.030;2023-05-20T12:19:21;9.45;;;7.70;;
68225;SDS011;55045;49.410;11.030;2023-05-20T12:22:24;13.05;;;7.68;;
68225;SDS011;55045;49.410;11.030;2023-05-20T12:25:29;53.42;;;9.35;;
68225;SDS011;55045;49.410;11.030;2023-05-20T12:28:32;8.68;;;7.00;;
68225;SDS011;55045;49.410;11.030;2023-05-20T12:31:35;19.27;;;7.47;;
68225;SDS011;55045;49.410;11.030;2023-05-20T12:34:38;13.73;;;7.45;;
68225;SDS011;55045;49.410;11.030;2023-05-20T12:37:42;13.75;;;7.80;;
68225;SDS011;55045;49.410;11.030;2023-05-20T12:40:48;18.20;;;7.65;;
68225;SDS011;55045;49.410;11.030;2023-05-20T12:43:51;16.02;;;7.68;;
68225;SDS011;55045;49.410;11.030;2023-05-20T12:46:55;12.27;;;6.57;;
68225;SDS011;55045;49.410;11.030;2023-05-20T12:49:58;8.00;;;6.60;;
68225;SDS011;55045;49.410;11.030;2023-05-20T12:53:02;12.32;;;7.50;;
68225;SDS011;55045;49.410;11.030;2023-05-20T12:56:07;9.48;;;5.78;;
68225;SDS011;55045;49.410;11.030;2023-05-20T12:59:10;14.32;;;7.25;;
68225;SDS011;55045;49.410;11.030;2023-05-20T13:02:13;14.77;;;8.23;;
68225;SDS011;55045;49.410;11.030;2023-05-20T13:05:17;9.25;;;6.75;;
68225;SDS011;55045;49.410;11.030;2023-05-20T13:08:20;12.40;;;8.38;;
68225;SDS011;55045;49.410;11.030;2023-05-20T13:11:24;9.30;;;7.32;;
68225;SDS011;55045;49.410;11.030;2023-05-20T13:14:28;9.60;;;7.50;;
68225;SDS011;55045;49.410;11.030;2023-05-20T13:17:31;12.27;;;7.10;;
68225;SDS011;55045;49.410;11.030;2023-05-20T13:20:35;10.85;;;7.47;;
68225;SDS011;55045;49.410;11.030;2023-05-20T13:23:39;13.00;;;7.78;;
68225;SDS011;55045;49.410;11.030;2023-05-20T13:26:44;16.45;;;8.27;;
68225;SDS011;55045;49.410;11.030;2023-05-20T13:29:48;11.82;;;7.75;;
68225;SDS011;55045;49.410;11.030;2023-05-20T13:32:51;10.80;;;7.00;;
68225;SDS011;55045;49.410;11.030;2023-05-20T13:35:54;17.88;;;7.25;;
68225;SDS011;55045;49.410;11.030;2023-05-20T13:38:58;19.33;;;7.45;;
68225;SDS011;55045;49.410;11.030;2023-05-20T13:42:03;8.25;;;5.88;;
68225;SDS011;55045;49.410;11.030;2023-05-20T13:45:06;9.80;;;7.15;;
68225;SDS011;55045;49.410;11.030;2023-05-20T13:48:10;12.30;;;6.60;;
68225;SDS011;55045;49.410;11.030;2023-05-20T13:51:13;7.50;;;6.38;;
68225;SDS011;55045;49.410;11.030;2023-05-20T13:54:16;9.30;;;6.75;;
68225;SDS011;55045;49.410;11.030;2023-05-20T13:57:21;21.83;;;8.18;;
68225;SDS011;55045;49.410;11.030;2023-05-20T14:00:24;11.93;;;7.78;;
68225;SDS011;55045;49.410;11.030;2023-05-20T14:03:28;15.80;;;7.88;;
68225;SDS011;55045;49.410;11.030;2023-05-20T14:06:31;12.07;;;7.07;;
68225;SDS011;55045;49.410;11.030;2023-05-20T14:09:35;10.85;;;6.45;;
68225;SDS011;55045;49.410;11.030;2023-05-20T14:12:40;10.43;;;6.38;;
68225;SDS011;55045;49.410;11.030;2023-05-20T14:15:48;13.13;;;7.03;;
68225;SDS011;55045;49.410;11.030;2023-05-20T14:18:52;16.65;;;7.13;;
68225;SDS011;55045;49.410;11.030;2023-05-20T14:21:55;10.65;;;6.80;;
68225;SDS011;55045;49.410;11.030;2023-05-20T14:24:59;8.05;;;6.65;;
68225;SDS011;55045;49.410;11.030;2023-05-20T14:28:07;19.35;;;8.48;;
68225;SDS011;55045;49.410;11.030;2023-05-20T14:31:11;30.73;;;9.52;;
68225;SDS011;55045;49.410;11.030;2023-05-20T14:34:14;12.80;;;7.35;;
68225;SDS011;55045;49.410;11.030;2023-05-20T14:37:18;9.77;;;7.28;;
68225;SDS011;55045;49.410;11.030;2023-05-20T14:40:23;18.23;;;7.05;;
68225;SDS011;55045;49.410;11.030;2023-05-20T14:43:28;9.60;;;6.82;;
68225;SDS011;55045;49.410;11.030;2023-05-20T14:46:33;7.97;;;5.35;;
68225;SDS011;55045;49.410;11.030;2023-05-20T14:49:36;15.20;;;6.65;;
68225;SDS011;55045;49.410;11.030;2023-05-20T14:52:40;7.43;;;5.40;;
68225;SDS011;55045;49.410;11.030;2023-05-20T14:55:44;10.73;;;5.90;;
68225;SDS011;55045;49.410;11.030;2023-05-20T14:58:48;15.38;;;6.68;;
68225;SDS011;55045;49.410;11.030;2023-05-20T15:01:52;9.93;;;5.28;;
68225;SDS011;55045;49.410;11.030;2023-05-20T15:04:55;9.27;;;5.90;;
68225;SDS011;55045;49.410;11.030;2023-05-20T15:07:58;9.93;;;6.38;;
68225;SDS011;55045;49.410;11.030;2023-05-20T15:11:02;9.40;;;6.50;;
68225;SDS011;55045;49.410;11.030;2023-05-20T15:14:11;11.10;;;5.80;;
68225;SDS011;55045;49.410;11.030;2023-05-20T15:17:15;9.75;;;6.30;;
68225;SDS011;55045;49.410;11.030;2023-05-20T15:20:19;11.35;;;6.30;;
68225;SDS011;55045;49.410;11.030;2023-05-20T15:23:22;7.28;;;5.57;;
68225;SDS011;55045;49.410;11.030;2023-05-20T15:26:25;10.75;;;7.30;;
68225;SDS011;55045;49.410;11.030;2023-05-20T15:29:30;24.92;;;7.40;;
68225;SDS011;55045;49.410;11.030;2023-05-20T15:34:32;6.95;;;6.20;;
68225;SDS011;55045;49.410;11.030;2023-05-20T15:37:36;12.02;;;6.82;;
68225;SDS011;55045;49.410;11.030;2023-05-20T15:40:39;10.20;;;6.68;;
68225;SDS011;55045;49.410;11.030;2023-05-20T15:43:43;10.98;;;6.05;;
68225;SDS011;55045;49.410;11.030;2023-05-20T15:46:46;10.30;;;6.65;;
68225;SDS011;55045;49.410;11.030;2023-05-20T15:49:51;21.02;;;7.00;;
68225;SDS011;55045;49.410;11.030;2023-05-20T15:52:55;7.15;;;5.40;;
68225;SDS011;55045;49.410;11.030;2023-05-20T15:55:58;11.07;;;5.80;;
68225;SDS011;55045;49.410;11.030;2023-05-20T15:59:10;10.63;;;6.25;;
68225;SDS011;55045;49.410;11.030;2023-05-20T16:02:14;21.02;;;6.28;;
68225;SDS011;55045;49.410;11.030;2023-05-20T16:05:18;8.45;;;6.13;;
68225;SDS011;55045;49.410;11.030;2023-05-20T16:08:25;9.23;;;6.15;;
68225;SDS011;55045;49.410;11.030;2023-05-20T16:11:30;10.73;;;6.60;;
68225;SDS011;55045;49.410;11.030;2023-05-20T16:14:33;8.80;;;6.95;;
68225;SDS011;55045;49.410;11.030;2023-05-20T16:17:36;13.25;;;7.45;;
68225;SDS011;55045;49.410;11.030;2023-05-20T16:20:41;14.48;;;7.10;;
68225;SDS011;55045;49.410;11.030;2023-05-20T16:23:45;7.18;;;6.22;;
68225;SDS011;55045;49.410;11.030;2023-05-20T16:26:48;9.88;;;6.80;;
68225;SDS011;55045;49.410;11.030;2023-05-20T16:29:52;13.98;;;6.93;;
68225;SDS011;55045;49.410;11.030;2023-05-20T16:32:55;8.30;;;6.13;;
68225;SDS011;55045;49.410;11.030;2023-05-20T16:36:00;12.15;;;6.93;;
68225;SDS011;55045;49.410;11.030;2023-05-20T16:39:04;13.02;;;6.30;;
68225;SDS011;55045;49.410;11.030;2023-05-20T16:42:07;8.27;;;6.30;;
68225;SDS011;55045;49.410;11.030;2023-05-20T16:45:11;12.90;;;6.13;;
68225;SDS011;55045;49.410;11.030;2023-05-20T16:48:14;15.70;;;7.05;;
68225;SDS011;55045;49.410;11.030;2023-05-20T16:51:19;8.52;;;6.13;;
68225;SDS011;55045;49.410;11.030;2023-05-20T16:54:22;7.93;;;6.25;;
68225;SDS011;55045;49.410;11.030;2023-05-20T16:57:26;8.68;;;6.30;;
68225;SDS011;55045;49.410;11.030;2023-05-20T17:00:29;10.48;;;7.28;;
68225;SDS011;55045;49.410;11.030;2023-05-20T17:03:33;11.45;;;5.93;;
68225;SDS011;55045;49.410;11.030;2023-05-20T17:06:38;9.18;;;6.60;;
68225;SDS011;55045;49.410;11.030;2023-05-20T17:09:42;13.82;;;6.53;;
68225;SDS011;55045;49.410;11.030;2023-05-20T17:12:45;10.88;;;6.68;;
68225;SDS011;55045;49.410;11.030;2023-05-20T17:15:49;7.65;;;5.40;;
68225;SDS011;55045;49.410;11.030;2023-05-20T17:18:52;9.27;;;6.15;;
68225;SDS011;55045;49.410;11.030;2023-05-20T17:21:58;12.82;;;7.00;;
68225;SDS011;55045;49.410;11.030;2023-05-20T17:25:01;7.60;;;5.53;;
68225;SDS011;55045;49.410;11.030;2023-05-20T17:28:05;12.07;;;6.82;;
68225;SDS011;55045;49.410;11.030;2023-05-20T17:31:08;16.67;;;7.13;;
68225;SDS011;55045;49.410;11.030;2023-05-20T17:34:12;14.55;;;7.07;;
68225;SDS011;55045;49.410;11.030;2023-05-20T17:37:16;26.52;;;8.57;;
68225;SDS011;55045;49.410;11.030;2023-05-20T17:40:20;18.02;;;10.55;;
68225;SDS011;55045;49.410;11.030;2023-05-20T17:43:23;21.95;;;8.10;;
68225;SDS011;55045;49.410;11.030;2023-05-20T17:46:27;7.90;;;5.65;;
68225;SDS011;55045;49.410;11.030;2023-05-20T17:49:30;12.25;;;6.35;;
68225;SDS011;55045;49.410;11.030;2023-05-20T17:52:35;10.80;;;5.70;;
68225;SDS011;55045;49.410;11.030;2023-05-20T17:55:38;8.30;;;5.90;;
68225;SDS011;55045;49.410;11.030;2023-05-20T17:58:41;9.32;;;6.07;;
68225;SDS011;55045;49.410;11.030;2023-05-20T18:01:46;9.88;;;6.15;;
68225;SDS011;55045;49.410;11.030;2023-05-20T18:04:49;9.65;;;6.15;;
68225;SDS011;55045;49.410;11.030;2023-05-20T18:07:54;11.80;;;6.30;;
68225;SDS011;55045;49.410;11.030;2023-05-20T18:10:58;8.63;;;6.15;;
68225;SDS011;55045;49.410;11.030;2023-05-20T18:14:10;11.27;;;6.68;;
68225;SDS011;55045;49.410;11.030;2023-05-20T18:17:13;8.77;;;6.32;;
68225;SDS011;55045;49.410;11.030;2023-05-20T18:20:17;7.75;;;6.40;;